createdAt,value
2018-09-12T00:00:32.654Z,82.75
2018-09-12T00:02:59.910Z,82.84
2018-09-12T00:05:27.207Z,82.84
2018-09-12T00:07:54.478Z,82.81
2018-09-12T00:10:21.832Z,83.46
2018-09-12T00:12:49.193Z,84.07
2018-09-12T00:15:17.472Z,83.60
2018-09-12T00:17:44.746Z,84.22
2018-09-12T00:20:12.021Z,83.94
2018-09-12T00:22:40.099Z,84.81
2018-09-12T00:25:07.508Z,85.20
2018-09-12T00:27:34.841Z,84.60
2018-09-12T00:30:02.250Z,85.00
2018-09-12T00:32:29.549Z,84.97
2018-09-12T00:34:56.828Z,84.33
2018-09-12T00:37:24.085Z,83.31
2018-09-12T00:39:51.432Z,83.44
2018-09-12T00:42:18.742Z,83.78
2018-09-12T00:44:46.171Z,84.51
2018-09-12T00:47:13.528Z,84.32
2018-09-12T00:49:40.843Z,84.07
2018-09-12T00:52:08.620Z,83.34
2018-09-12T00:54:35.871Z,84.96
2018-09-12T00:57:03.116Z,85.42
2018-09-12T00:59:30.330Z,84.84
2018-09-12T01:01:58.273Z,85.97
2018-09-12T01:04:25.592Z,86.03
2018-09-12T01:06:53.097Z,84.94
2018-09-12T01:09:20.409Z,86.49
2018-09-12T01:11:48.275Z,86.43
2018-09-12T01:14:15.656Z,85.01
2018-09-12T01:16:42.965Z,84.79
2018-09-12T01:19:10.236Z,84.39
2018-09-12T01:21:37.628Z,84.93
2018-09-12T01:24:05.007Z,84.80
2018-09-12T01:26:32.308Z,84.57
2018-09-12T01:28:59.633Z,86.23
2018-09-12T01:31:26.925Z,85.12
2018-09-12T01:33:54.177Z,85.07
2018-09-12T01:36:21.401Z,83.72
2018-09-12T01:38:48.666Z,85.24
2018-09-12T01:41:16.615Z,84.08
2018-09-12T01:43:44.033Z,85.21
2018-09-12T01:46:11.309Z,86.26
2018-09-12T01:48:38.681Z,84.66
2018-09-12T01:51:06.089Z,85.88
2018-09-12T01:53:33.321Z,85.87
2018-09-12T01:56:00.557Z,85.19
2018-09-12T01:58:27.852Z,87.01
2018-09-12T02:00:55.122Z,84.88
2018-09-12T02:03:22.398Z,85.75
2018-09-12T02:05:49.700Z,85.85
2018-09-12T02:08:17.067Z,85.25
2018-09-12T02:10:44.344Z,84.23
2018-09-12T02:13:11.659Z,84.58
2018-09-12T02:15:38.890Z,83.67
2018-09-12T02:18:13.132Z,83.79
2018-09-12T02:20:40.421Z,83.79
2018-09-12T02:23:07.692Z,84.21
2018-09-12T02:25:35.081Z,83.99
2018-09-12T02:28:03.153Z,83.98
2018-09-12T02:30:30.418Z,84.47
2018-09-12T02:32:57.813Z,83.99
2018-09-12T02:35:25.195Z,84.24
2018-09-12T02:37:53.025Z,84.20
2018-09-12T02:40:20.360Z,84.06
2018-09-12T02:42:47.741Z,84.00
2018-09-12T02:45:14.989Z,84.29
2018-09-12T02:47:42.356Z,83.59
2018-09-12T02:50:11.308Z,82.96
2018-09-12T02:52:38.519Z,83.68
2018-09-12T02:55:06.906Z,82.80
2018-09-12T02:57:34.286Z,83.90
2018-09-12T03:00:01.646Z,83.43
2018-09-12T03:02:29.036Z,83.09
2018-09-12T03:04:56.431Z,83.70
2018-09-12T03:07:23.855Z,83.49
2018-09-12T03:09:51.139Z,83.26
2018-09-12T03:12:19.356Z,83.80
2018-09-12T03:14:46.724Z,83.97
2018-09-12T03:17:14.522Z,84.19
2018-09-12T03:19:41.899Z,84.05
2018-09-12T03:22:09.149Z,83.86
2018-09-12T03:24:36.550Z,83.82
2018-09-12T03:27:03.988Z,83.81
2018-09-12T03:29:31.403Z,83.21
2018-09-12T03:31:58.910Z,83.29
2018-09-12T03:34:26.346Z,83.24
2018-09-12T03:36:53.637Z,83.02
2018-09-12T03:39:21.035Z,83.47
2018-09-12T03:41:49.018Z,83.46
2018-09-12T03:44:16.337Z,84.19
2018-09-12T03:46:43.653Z,83.24
2018-09-12T03:49:11.812Z,83.62
2018-09-12T03:51:39.237Z,82.42
2018-09-12T03:54:06.550Z,81.52
2018-09-12T03:56:34.652Z,80.98
2018-09-12T03:59:01.985Z,81.20
2018-09-12T04:01:29.443Z,81.83
2018-09-12T04:03:56.701Z,82.37
2018-09-12T04:06:23.997Z,82.44
2018-09-12T04:08:51.279Z,82.43
2018-09-12T04:11:18.672Z,82.00
2018-09-12T04:13:46.046Z,81.64
2018-09-12T04:16:13.402Z,82.13
2018-09-12T04:18:40.766Z,82.06
2018-09-12T04:21:08.075Z,81.74
2018-09-12T04:23:35.367Z,81.99
2018-09-12T04:26:02.654Z,82.12
2018-09-12T04:28:29.977Z,81.75
2018-09-12T04:30:57.287Z,80.85
2018-09-12T04:33:24.657Z,80.91
2018-09-12T04:35:51.993Z,80.72
2018-09-12T04:38:19.287Z,81.53
2018-09-12T04:40:46.521Z,81.05
2018-09-12T04:43:13.886Z,81.81
2018-09-12T04:45:41.261Z,81.29
2018-09-12T04:48:08.537Z,81.15
2018-09-12T04:50:35.825Z,80.89
2018-09-12T04:53:03.117Z,80.97
2018-09-12T04:55:30.373Z,80.69
2018-09-12T04:57:57.666Z,81.55
2018-09-12T05:00:25.044Z,81.17
2018-09-12T05:02:52.312Z,81.71
2018-09-12T05:05:19.674Z,80.74
2018-09-12T05:07:47.349Z,80.97
2018-09-12T05:10:14.694Z,80.88
2018-09-12T05:12:42.034Z,81.75
2018-09-12T05:15:09.494Z,81.88
2018-09-12T05:17:36.795Z,82.20
2018-09-12T05:20:04.076Z,83.53
2018-09-12T05:22:31.456Z,87.36
2018-09-12T05:24:58.730Z,88.00
2018-09-12T05:27:26.086Z,86.80
2018-09-12T05:29:53.397Z,86.02
2018-09-12T05:32:20.666Z,85.51
2018-09-12T05:34:47.919Z,85.79
2018-09-12T05:37:15.176Z,85.87
2018-09-12T05:39:42.607Z,87.11
2018-09-12T05:42:09.972Z,86.15
2018-09-12T05:44:38.012Z,86.04
2018-09-12T05:47:05.234Z,86.91
2018-09-12T05:49:32.744Z,87.64
2018-09-12T05:52:00.022Z,86.14
2018-09-12T05:54:27.279Z,85.27
2018-09-12T05:56:55.273Z,85.46
2018-09-12T05:59:23.097Z,86.01
2018-09-12T06:01:50.442Z,84.58
2018-09-12T06:04:17.697Z,85.12
2018-09-12T06:06:45.166Z,85.78
2018-09-12T06:09:12.466Z,84.07
2018-09-12T06:11:39.797Z,86.08
2018-09-12T06:14:07.168Z,85.17
2018-09-12T06:16:34.586Z,85.74
2018-09-12T06:19:01.986Z,87.36
2018-09-12T06:21:29.274Z,87.74
2018-09-12T06:23:56.494Z,86.46
2018-09-12T06:26:23.743Z,87.18
2018-09-12T06:28:51.710Z,87.76
2018-09-12T06:31:19.054Z,87.61
2018-09-12T06:33:46.888Z,87.05
2018-09-12T06:36:14.441Z,87.84
2018-09-12T06:38:41.812Z,88.82
2018-09-12T06:41:09.116Z,87.57
2018-09-12T06:43:36.596Z,88.46
2018-09-12T06:46:03.889Z,88.02
2018-09-12T06:48:31.747Z,88.33
2018-09-12T06:50:59.120Z,87.72
2018-09-12T06:53:26.523Z,87.87
2018-09-12T06:55:54.149Z,86.83
2018-09-12T06:58:21.998Z,87.46
2018-09-12T07:00:49.382Z,87.74
2018-09-12T07:03:16.687Z,86.85
2018-09-12T07:05:44.116Z,87.15
2018-09-12T07:08:11.489Z,87.14
2018-09-12T07:10:38.920Z,86.85
2018-09-12T07:13:06.329Z,86.91
2018-09-12T07:15:33.741Z,87.20
2018-09-12T07:18:01.017Z,87.71
2018-09-12T07:20:28.337Z,87.69
2018-09-12T07:22:56.146Z,87.43
2018-09-12T07:25:23.557Z,86.36
2018-09-12T07:27:51.044Z,86.58
2018-09-12T07:30:18.371Z,86.44
2018-09-12T07:32:46.340Z,86.69
2018-09-12T07:35:13.672Z,86.20
2018-09-12T07:37:40.993Z,85.75
2018-09-12T07:40:08.359Z,86.56
2018-09-12T07:42:35.633Z,86.86
2018-09-12T07:45:03.170Z,87.43
2018-09-12T07:47:30.508Z,86.35
2018-09-12T07:49:57.829Z,86.61
2018-09-12T07:52:25.105Z,86.54
2018-09-12T07:54:52.574Z,85.90
2018-09-12T07:57:19.859Z,86.20
2018-09-12T07:59:47.198Z,86.52
2018-09-12T08:02:14.473Z,84.96
2018-09-12T08:04:41.811Z,85.86
2018-09-12T08:07:09.122Z,86.62
2018-09-12T08:09:37.376Z,86.51
2018-09-12T08:12:05.114Z,86.47
2018-09-12T08:14:32.480Z,86.05
2018-09-12T08:17:00.004Z,86.09
2018-09-12T08:19:27.584Z,85.96
2018-09-12T08:21:55.072Z,86.15
2018-09-12T08:24:26.064Z,86.76
2018-09-12T08:26:53.837Z,87.72
2018-09-12T08:29:22.067Z,85.78
2018-09-12T08:31:49.368Z,85.11
2018-09-12T08:34:16.733Z,86.03
2018-09-12T08:36:44.107Z,85.29
2018-09-12T08:39:11.647Z,85.25
2018-09-12T08:41:39.193Z,85.90
2018-09-12T08:44:09.718Z,85.25
2018-09-12T08:46:37.162Z,83.73
2018-09-12T08:49:04.530Z,83.57
2018-09-12T08:51:31.910Z,84.58
2018-09-12T08:53:59.228Z,84.78
2018-09-12T08:56:26.579Z,83.87
2018-09-12T08:58:53.850Z,84.83
2018-09-12T09:01:21.305Z,86.76
2018-09-12T09:03:48.585Z,85.22
2018-09-12T09:06:16.043Z,84.13
2018-09-12T09:08:43.736Z,83.86
2018-09-12T09:11:11.232Z,84.72
2018-09-12T09:13:38.605Z,86.44
2018-09-12T09:16:05.925Z,84.89
2018-09-12T09:18:33.252Z,84.53
2018-09-12T09:21:00.582Z,85.46
2018-09-12T09:23:27.970Z,83.62
2018-09-12T09:25:55.377Z,83.25
2018-09-12T09:28:22.777Z,83.68
2018-09-12T09:30:50.309Z,83.21
2018-09-12T09:33:17.690Z,82.76
2018-09-12T09:35:45.219Z,81.39
2018-09-12T09:38:12.557Z,79.74
2018-09-12T09:40:39.925Z,80.44
2018-09-12T09:43:07.301Z,80.54
2018-09-12T09:45:34.639Z,81.02
2018-09-12T09:48:02.063Z,80.44
2018-09-12T09:50:29.346Z,79.61
2018-09-12T09:52:56.711Z,79.78
2018-09-12T09:55:24.143Z,79.71
2018-09-12T09:57:51.536Z,78.19
2018-09-12T10:00:24.592Z,78.91
2018-09-12T10:02:57.572Z,78.75
2018-09-12T10:05:29.545Z,79.39
2018-09-12T10:08:03.986Z,79.33
2018-09-12T10:10:31.416Z,79.23
2018-09-12T10:12:59.111Z,80.86
2018-09-12T10:15:26.498Z,80.69
2018-09-12T10:17:53.850Z,81.12
2018-09-12T10:20:21.206Z,80.32
2018-09-12T10:22:48.645Z,80.38
2018-09-12T10:25:16.132Z,80.47
2018-09-12T10:27:43.533Z,81.04
2018-09-12T10:30:10.853Z,81.36
2018-09-12T10:32:38.213Z,80.95
2018-09-12T10:35:05.522Z,80.22
2018-09-12T10:37:33.045Z,79.23
2018-09-12T10:40:00.407Z,79.14
2018-09-12T10:42:27.685Z,78.13
2018-09-12T10:44:55.034Z,78.99
2018-09-12T10:47:22.644Z,80.18
2018-09-12T10:49:50.075Z,80.29
2018-09-12T10:52:17.427Z,80.64
2018-09-12T10:54:45.650Z,79.79
2018-09-12T10:57:13.011Z,80.94
2018-09-12T10:59:40.483Z,81.34
2018-09-12T11:02:07.823Z,81.23
2018-09-12T11:04:35.275Z,81.99
2018-09-12T11:07:02.700Z,80.74
2018-09-12T11:09:30.082Z,81.15
2018-09-12T11:11:57.547Z,78.56
2018-09-12T11:14:25.001Z,80.64
2018-09-12T11:16:52.383Z,79.01
2018-09-12T11:19:19.903Z,79.90
2018-09-12T11:21:47.524Z,78.84
2018-09-12T11:24:15.454Z,79.84
2018-09-12T11:29:16.885Z,79.50
2018-09-12T11:31:44.256Z,79.93
2018-09-12T11:34:11.634Z,79.42
2018-09-12T11:36:38.994Z,80.01
2018-09-12T11:39:07.850Z,80.66
2018-09-12T11:41:35.307Z,79.26
2018-09-12T11:44:02.628Z,78.41
2018-09-12T11:46:29.992Z,78.47
2018-09-12T11:48:57.412Z,77.49
2018-09-12T11:51:24.737Z,77.91
2018-09-12T11:53:52.180Z,78.73
2018-09-12T11:56:19.541Z,79.05
2018-09-12T11:58:47.062Z,80.49
2018-09-12T12:01:14.553Z,81.12
2018-09-12T12:03:42.174Z,81.29
2018-09-12T12:06:09.938Z,79.79
2018-09-12T12:08:37.432Z,80.55
2018-09-12T12:11:05.737Z,79.26
2018-09-12T12:13:33.112Z,78.12
2018-09-12T12:16:00.478Z,79.75
2018-09-12T12:18:27.873Z,78.09
2018-09-12T12:20:55.315Z,77.55
2018-09-12T12:23:22.681Z,78.48
2018-09-12T12:25:50.040Z,76.92
2018-09-12T12:28:17.616Z,76.35
2018-09-12T12:30:45.175Z,76.42
2018-09-12T12:33:12.762Z,76.97
2018-09-12T12:35:40.130Z,77.70
2018-09-12T12:38:07.640Z,75.54
2018-09-12T12:40:35.926Z,73.44
2018-09-12T12:43:03.252Z,75.22
2018-09-12T12:45:30.563Z,74.49
2018-09-12T12:47:58.063Z,73.89
2018-09-12T12:50:25.535Z,72.51
2018-09-12T12:52:53.882Z,73.92
2018-09-12T12:55:21.196Z,72.88
2018-09-12T12:57:49.055Z,74.21
2018-09-12T13:00:17.310Z,74.19
2018-09-12T13:02:44.684Z,73.31
2018-09-12T13:05:12.213Z,73.72
2018-09-12T13:07:39.673Z,71.60
2018-09-12T13:10:07.139Z,71.11
2018-09-12T13:12:34.470Z,74.32
2018-09-12T13:15:01.824Z,73.14
2018-09-12T13:17:30.626Z,73.33
2018-09-12T13:19:58.019Z,72.40
2018-09-12T13:22:26.140Z,72.37
2018-09-12T13:24:53.546Z,71.26
2018-09-12T13:27:20.957Z,72.64
2018-09-12T13:29:48.317Z,71.00
2018-09-12T13:32:15.654Z,72.67
2018-09-12T13:34:43.015Z,73.70
2018-09-12T13:37:10.403Z,75.11
2018-09-12T13:39:37.685Z,72.65
2018-09-12T13:42:05.341Z,72.67
2018-09-12T13:44:33.019Z,70.54
2018-09-12T13:47:00.222Z,70.50
2018-09-12T13:49:27.679Z,71.56
2018-09-12T13:51:54.975Z,69.64
2018-09-12T13:54:22.340Z,70.96
2018-09-12T13:56:49.733Z,69.57
2018-09-12T13:59:17.293Z,71.00
2018-09-12T14:01:51.512Z,71.13
2018-09-12T14:04:18.822Z,69.33
2018-09-12T14:06:46.114Z,69.11
2018-09-12T14:09:13.465Z,69.38
2018-09-12T14:11:40.877Z,69.52
2018-09-12T14:14:08.565Z,69.75
2018-09-12T14:16:35.966Z,69.69
2018-09-12T14:19:03.351Z,68.78
2018-09-12T14:21:30.588Z,68.73
2018-09-12T14:23:57.840Z,67.91
2018-09-12T14:26:25.192Z,68.04
2018-09-12T14:28:52.532Z,68.27
2018-09-12T14:31:20.338Z,68.06
2018-09-12T14:33:47.669Z,68.41
2018-09-12T14:36:15.025Z,70.00
2018-09-12T14:38:42.313Z,70.31
2018-09-12T14:41:09.675Z,70.15
2018-09-12T14:43:37.027Z,71.54
2018-09-12T14:46:04.427Z,71.02
2018-09-12T14:48:31.766Z,69.99
2018-09-12T14:50:59.124Z,69.97
2018-09-12T14:53:26.492Z,67.75
2018-09-12T14:55:53.828Z,69.19
2018-09-12T14:58:21.213Z,69.65
2018-09-12T15:00:52.185Z,71.29
2018-09-12T15:03:19.636Z,70.16
2018-09-12T15:05:46.927Z,69.48
2018-09-12T15:08:14.201Z,69.48
2018-09-12T15:10:41.537Z,70.10
2018-09-12T15:13:08.799Z,70.59
2018-09-12T15:15:36.147Z,69.86
2018-09-12T15:18:03.565Z,69.77
2018-09-12T15:20:30.907Z,69.30
2018-09-12T15:22:58.194Z,69.35
2018-09-12T15:25:25.511Z,69.95
2018-09-12T15:27:52.906Z,70.02
2018-09-12T15:30:20.221Z,69.43
2018-09-12T15:32:47.550Z,68.81
2018-09-12T15:35:14.828Z,69.54
2018-09-12T15:37:42.364Z,69.12
2018-09-12T15:40:09.952Z,67.93
2018-09-12T15:42:37.367Z,68.18
2018-09-12T15:45:04.715Z,68.42
2018-09-12T15:47:32.018Z,68.02
2018-09-12T15:50:00.226Z,68.30
2018-09-12T15:52:27.614Z,67.85
2018-09-12T15:54:56.024Z,67.32
2018-09-12T15:57:23.550Z,67.18
2018-09-12T15:59:50.840Z,67.95
2018-09-12T16:02:18.172Z,68.54
2018-09-12T16:04:45.586Z,68.74
2018-09-12T16:07:13.028Z,67.38
2018-09-12T16:09:40.413Z,67.54
2018-09-12T16:12:07.686Z,67.71
2018-09-12T16:14:35.090Z,67.37
2018-09-12T16:17:02.530Z,68.00
2018-09-12T16:19:29.808Z,67.73
2018-09-12T16:21:57.234Z,66.92
2018-09-12T16:24:24.637Z,68.25
2018-09-12T16:26:51.937Z,66.64
2018-09-12T16:29:19.305Z,68.74
2018-09-12T16:31:46.778Z,68.18
2018-09-12T16:34:14.106Z,68.07
2018-09-12T16:36:41.557Z,68.49
2018-09-12T16:39:10.271Z,68.08
2018-09-12T16:41:37.706Z,68.39
2018-09-12T16:44:05.086Z,68.16
2018-09-12T16:46:32.413Z,68.02
2018-09-12T16:48:59.891Z,67.84
2018-09-12T16:51:27.879Z,68.17
2018-09-12T16:53:55.290Z,68.42
2018-09-12T16:56:22.815Z,67.81
2018-09-12T16:58:50.110Z,68.24
2018-09-12T17:01:17.393Z,68.86
2018-09-12T17:03:44.708Z,69.19
2018-09-12T17:06:12.058Z,69.13
2018-09-12T17:08:39.381Z,68.90
2018-09-12T17:11:06.768Z,68.71
2018-09-12T17:13:34.116Z,68.57
2018-09-12T17:16:01.408Z,68.33
2018-09-12T17:18:28.712Z,67.89
2018-09-12T17:20:56.037Z,67.77
2018-09-12T17:23:23.357Z,68.48
2018-09-12T17:25:50.645Z,67.99
2018-09-12T17:28:17.921Z,67.95
2018-09-12T17:30:45.261Z,67.94
2018-09-12T17:33:12.654Z,68.39
2018-09-12T17:35:40.012Z,68.56
2018-09-12T17:38:07.399Z,68.42
2018-09-12T17:40:34.716Z,67.73
2018-09-12T17:43:01.981Z,68.85
2018-09-12T17:45:29.223Z,69.56
2018-09-12T17:47:56.500Z,68.24
2018-09-12T17:50:23.861Z,68.86
2018-09-12T17:52:51.157Z,69.15
2018-09-12T17:55:18.485Z,69.19
2018-09-12T17:57:45.821Z,68.68
2018-09-12T18:00:13.183Z,68.27
2018-09-12T18:02:40.615Z,69.06
2018-09-12T18:05:07.935Z,68.79
2018-09-12T18:07:35.246Z,68.34
2018-09-12T18:10:02.624Z,68.96
2018-09-12T18:12:30.023Z,69.41
2018-09-12T18:14:57.486Z,68.98
2018-09-12T18:17:24.808Z,68.95
2018-09-12T18:19:52.078Z,68.63
2018-09-12T18:22:19.362Z,68.99
2018-09-12T18:24:46.898Z,69.18
2018-09-12T18:27:14.131Z,69.60
2018-09-12T18:29:41.466Z,68.40
2018-09-12T18:32:08.707Z,68.69
2018-09-12T18:34:35.924Z,68.89
2018-09-12T18:37:03.187Z,68.99
2018-09-12T18:39:30.537Z,69.27
2018-09-12T18:41:57.955Z,68.78
2018-09-12T18:44:27.430Z,68.34
2018-09-12T18:46:55.046Z,68.21
2018-09-12T18:49:22.499Z,68.05
2018-09-12T18:51:49.994Z,68.56
2018-09-12T18:54:17.633Z,68.17
2018-09-12T18:56:45.178Z,68.18
2018-09-12T18:59:13.177Z,68.39
2018-09-12T19:01:40.726Z,68.64
2018-09-12T19:04:08.080Z,68.41
2018-09-12T19:06:35.492Z,68.66
2018-09-12T19:09:05.229Z,68.92
2018-09-12T19:11:32.535Z,68.21
2018-09-12T19:13:59.992Z,68.45
2018-09-12T19:16:27.311Z,68.02
2018-09-12T19:18:54.813Z,68.29
2018-09-12T19:21:22.273Z,68.43
2018-09-12T19:23:49.630Z,67.89
2018-09-12T19:26:17.344Z,68.30
2018-09-12T19:28:44.653Z,68.23
2018-09-12T19:31:12.449Z,68.48
2018-09-12T19:33:39.824Z,67.95
2018-09-12T19:36:07.148Z,67.99
2018-09-12T19:38:34.485Z,68.08
2018-09-12T19:41:01.909Z,67.97
2018-09-12T19:43:29.218Z,68.33
2018-09-12T19:45:56.559Z,68.04
2018-09-12T19:48:23.925Z,67.59
2018-09-12T19:50:51.332Z,67.68
2018-09-12T19:53:18.626Z,67.65
2018-09-12T19:55:45.897Z,67.72
2018-09-12T19:58:13.166Z,68.59
2018-09-12T20:00:40.506Z,68.05
2018-09-12T20:03:07.891Z,67.76
2018-09-12T20:05:35.294Z,68.29
2018-09-12T20:08:02.607Z,67.88
2018-09-12T20:10:29.994Z,67.91
2018-09-12T20:12:57.397Z,67.47
2018-09-12T20:15:25.431Z,67.31
2018-09-12T20:17:52.725Z,67.93
2018-09-12T20:20:20.158Z,67.96
2018-09-12T20:22:47.465Z,67.61
2018-09-12T20:25:14.993Z,67.77
2018-09-12T20:27:42.329Z,67.38
2018-09-12T20:32:36.357Z,67.59
2018-09-12T20:35:03.649Z,67.41
2018-09-12T20:37:30.935Z,67.10
2018-09-12T20:39:58.301Z,67.60
2018-09-12T20:42:25.570Z,67.81
2018-09-12T20:44:52.872Z,67.56
2018-09-12T20:47:20.153Z,67.70
2018-09-12T20:49:47.464Z,67.05
2018-09-12T20:52:14.876Z,67.28
2018-09-12T20:54:42.193Z,67.21
2018-09-12T20:57:09.480Z,67.46
2018-09-12T20:59:36.890Z,68.53
2018-09-12T21:02:04.277Z,68.17
2018-09-12T21:04:32.354Z,68.09
2018-09-12T21:06:59.877Z,67.69
2018-09-12T21:09:27.235Z,68.23
2018-09-12T21:11:54.523Z,68.14
2018-09-12T21:14:21.769Z,68.06
2018-09-12T21:16:49.083Z,68.57
2018-09-12T21:19:16.379Z,68.10
2018-09-12T21:21:43.628Z,68.39
2018-09-12T21:24:10.950Z,70.91
2018-09-12T21:26:38.276Z,70.10
2018-09-12T21:29:05.729Z,70.02
2018-09-12T21:31:33.297Z,69.24
2018-09-12T21:34:00.705Z,69.16
2018-09-12T21:36:28.069Z,68.88
2018-09-12T21:38:55.472Z,69.71
2018-09-12T21:41:23.458Z,69.24
2018-09-12T21:43:50.948Z,69.21
2018-09-12T21:46:18.333Z,69.44
2018-09-12T21:48:45.860Z,69.27
2018-09-12T21:51:13.762Z,69.74
2018-09-12T21:53:41.123Z,69.94
2018-09-12T21:56:08.627Z,69.84
2018-09-12T21:58:36.028Z,69.71
2018-09-12T22:01:04.701Z,69.57
2018-09-12T22:03:32.073Z,69.91
2018-09-12T22:05:59.667Z,70.70
2018-09-12T22:08:27.041Z,71.60
2018-09-12T22:10:54.642Z,70.64
2018-09-12T22:13:22.085Z,70.52
2018-09-12T22:15:50.517Z,72.21
2018-09-12T22:18:17.953Z,70.84
2018-09-12T22:20:45.363Z,70.32
2018-09-12T22:23:12.661Z,70.46
2018-09-12T22:25:39.916Z,71.15
2018-09-12T22:28:07.296Z,70.26
2018-09-12T22:30:34.574Z,69.71
2018-09-12T22:33:01.913Z,69.72
2018-09-12T22:35:29.221Z,70.04
2018-09-12T22:37:57.062Z,70.50
2018-09-12T22:40:24.609Z,71.14
2018-09-12T22:42:51.885Z,71.10
2018-09-12T22:45:19.850Z,70.13
2018-09-12T22:47:47.177Z,70.59
2018-09-12T22:50:14.574Z,70.31
2018-09-12T22:52:41.991Z,70.48
2018-09-12T22:55:09.259Z,70.27
2018-09-12T22:57:37.005Z,70.71
2018-09-12T23:00:05.197Z,70.96
2018-09-12T23:02:32.540Z,71.16
2018-09-12T23:04:59.911Z,70.46
2018-09-12T23:07:27.268Z,70.52
2018-09-12T23:09:54.671Z,70.51
2018-09-12T23:12:21.981Z,70.60
2018-09-12T23:14:49.262Z,70.48
2018-09-12T23:17:16.526Z,70.54
2018-09-12T23:19:43.813Z,70.45
2018-09-12T23:22:11.150Z,70.37
2018-09-12T23:24:38.494Z,70.62
2018-09-12T23:27:05.816Z,71.09
2018-09-12T23:29:33.111Z,70.84
2018-09-12T23:32:00.523Z,71.60
2018-09-12T23:34:27.820Z,71.98
2018-09-12T23:36:55.524Z,71.40
2018-09-12T23:39:22.893Z,71.61
2018-09-12T23:41:50.198Z,71.30
2018-09-12T23:44:17.495Z,71.34
2018-09-12T23:46:45.557Z,71.43
2018-09-12T23:49:13.381Z,71.35
2018-09-12T23:51:40.661Z,73.34
2018-09-12T23:54:08.288Z,71.47
2018-09-12T23:56:35.520Z,72.11
2018-09-12T23:59:02.811Z,71.89
